Flight Track Log - Related Links

Times and Time Zones

All times are in EDT time to prevent confusion due to time zone crossing. See the SKW6345 flight status page for this flight to view local times or setup timezone preferences in your user account.

Time Position Orientation Groundspeed Altitude Reporting Facility
EDT Latitude Longitude Course Direction KTS MPH feet Rate Location/Type
Thu 08:42:07 PM 33.8319 -118.4778 143° Southeast 194 223 4,700  Level Los Angeles Center
Thu 08:43:09 PM 33.7783 -118.4647 169° South 198 228 6,000 1,161 Climbing Los Angeles Center
Thu 08:44:11 PM 33.7297 -118.4367 154° Southeast 200 230 7,100 1,210 Climbing Los Angeles Center
Thu 08:45:13 PM 33.6775 -118.3817 139° Southeast 209 241 8,500 968 Climbing Los Angeles Center
Thu 08:46:00 PM 33.7578 -118.2189 140° Southeast  Level Estimated
Thu 08:46:15 PM 33.6311 -118.3328 139° Southeast 221 254 9,100  Level Los Angeles Center
Thu 08:47:00 PM 33.7255 -118.1897 143° Southeast  Level FlightAware Approximate
Thu 08:47:18 PM 33.5939 -118.2633 123° Southeast 240 276 9,100  Level Los Angeles Center
Thu 08:48:20 PM 33.5567 -118.1928 122° Southeast 250 288 9,000 -48 Descending Los Angeles Center
Thu 08:49:22 PM 33.5392 -118.1122 105° East 255 293 9,000  Level Los Angeles Center
Thu 08:50:24 PM 33.5097 -118.0172 110° East 269 310 9,000  Level Los Angeles Center
Thu 08:51:26 PM 33.4703 -117.9500 125° Southeast 255 293 9,000  Level Los Angeles Center
Thu 08:52:27 PM 33.4283 -117.8831 127° Southeast 253 291 9,000  Level Los Angeles Center
Thu 08:53:11 PM 33.4000 -117.8333 124° Southeast 250 288 9,000  Level Southern California TRACON
Thu 08:54:11 PM 33.3500 -117.7667 132° Southeast 250 288 9,000  Level Southern California TRACON
Thu 08:54:31 PM 33.3444 -117.7511 113° Southeast 250 288 9,000  Level Los Angeles Center
Thu 08:55:34 PM 33.3028 -117.6842 127° Southeast 251 289 9,000  Level Los Angeles Center
Thu 08:56:36 PM 33.2525 -117.6047 127° Southeast 251 289 9,000  Level Los Angeles Center
Thu 08:57:11 PM 33.2167 -117.5667 138° Southeast 250 288 9,000  Level Southern California TRACON
Thu 08:58:11 PM 33.1667 -117.5333 151° Southeast 252 290 9,000  Level Southern California TRACON
Thu 08:59:11 PM 33.1000 -117.4833 148° Southeast 251 289 9,000  Level Southern California TRACON
Thu 08:59:41 PM 33.0792 -117.4656 144° Southeast 251 289 9,000 -130 Level Los Angeles Center
Thu 09:00:43 PM 33.0214 -117.4183 146° Southeast 252 290 8,800 -435 Descending Los Angeles Center
Thu 09:01:45 PM 32.9594 -117.3689 146° Southeast 262 302 8,100 -750 Descending Los Angeles Center
Thu 09:02:11 PM 32.9167 -117.3333 145° Southeast 271 312 7,700 -767 Descending Southern California TRACON
Thu 09:03:11 PM 32.8833 -117.2667 121° Southeast 276 318 7,000 -735 Descending Southern California TRACON
Thu 09:03:49 PM 32.8506 -117.2203 130° Southeast 279 321 6,500 -900 Descending Los Angeles Center
Thu 09:04:51 PM 32.8131 -117.1503 123° Southeast 259 298 5,500 -774 Descending Los Angeles Center
Thu 09:05:53 PM 32.7794 -117.0892 123° Southeast 228 262 4,900 -484 Descending Los Angeles Center
Thu 09:06:55 PM 32.7464 -117.0297 123° Southeast 221 254 4,500 -532 Descending Los Angeles Center
Thu 09:07:12 PM 32.7167 -117.0167 160° South 223 257 4,200 -1,183 Descending Southern California TRACON
Thu 09:08:06 PM 32.7000 -117.0667 248° West 185 213 3,100 -1,250 Descending Southern California TRACON
Thu 09:09:12 PM 32.7167 -117.1167 292° West 133 153 1,700 -1,148 Descending Southern California TRACON
Thu 09:10:01 PM 32.7239 -117.1508 284° West 141 162 900 -980 Descending Los Angeles Center

Login

Don't have an account? Register now (free) for customized features, flight alerts, and more!